createdAt,value
2023-02-27T00:21:50.795Z,24.19
2023-02-27T00:22:50.657Z,24.19
2023-02-27T00:23:50.584Z,24.21
2023-02-27T00:24:50.514Z,24.19
2023-02-27T00:25:50.442Z,24.22
2023-02-27T00:26:50.369Z,24.20
2023-02-27T00:27:50.286Z,24.19
2023-02-27T00:28:50.190Z,24.21
2023-02-27T00:29:50.125Z,24.20
2023-02-27T00:30:50.067Z,24.19
2023-02-27T00:31:50.058Z,24.20
2023-02-27T00:32:49.933Z,24.21
2023-02-27T00:33:49.877Z,24.20
2023-02-27T00:34:49.812Z,24.19
2023-02-27T00:35:49.729Z,24.21
2023-02-27T00:36:49.652Z,24.18
2023-02-27T00:37:49.601Z,24.19
2023-02-27T00:38:49.522Z,24.20
2023-02-27T00:39:49.430Z,24.20
2023-02-27T00:40:49.331Z,24.19
2023-02-27T00:41:49.252Z,24.18
2023-02-27T00:42:49.174Z,24.21
2023-02-27T00:43:49.101Z,24.21
2023-02-27T00:44:49.011Z,24.18
2023-02-27T00:45:48.932Z,24.20
2023-02-27T00:46:48.924Z,24.20
2023-02-27T00:47:48.814Z,24.19
2023-02-27T00:48:48.826Z,24.17
2023-02-27T00:49:48.708Z,24.20
2023-02-27T00:50:48.654Z,24.21
2023-02-27T00:51:48.621Z,24.20
2023-02-27T00:52:48.558Z,24.20
2023-02-27T00:53:48.502Z,24.18
2023-02-27T00:54:48.439Z,24.20
2023-02-27T00:55:48.354Z,24.21
2023-02-27T00:56:48.280Z,24.20
2023-02-27T00:57:48.251Z,24.22
2023-02-27T00:58:48.151Z,24.22
2023-02-27T00:59:48.111Z,24.22
2023-02-27T01:00:48.111Z,24.22
2023-02-27T01:01:48.091Z,24.21
2023-02-27T01:02:48.032Z,24.23
2023-02-27T01:03:47.941Z,24.22
2023-02-27T01:04:47.955Z,24.23
2023-02-27T01:05:47.829Z,24.23
2023-02-27T01:06:47.753Z,24.21
2023-02-27T01:07:47.693Z,24.20
2023-02-27T01:08:47.608Z,24.20
2023-02-27T01:09:47.514Z,24.22
2023-02-27T01:10:47.447Z,24.22
2023-02-27T01:11:47.378Z,24.22
2023-02-27T01:12:47.297Z,24.23
2023-02-27T01:13:47.221Z,24.23
2023-02-27T01:14:47.123Z,24.24
2023-02-27T01:15:47.044Z,24.23
2023-02-27T01:16:46.972Z,24.20
2023-02-27T01:17:46.931Z,24.23
2023-02-27T01:18:46.873Z,24.23
2023-02-27T01:21:46.681Z,24.22
2023-02-27T01:26:46.219Z,24.21
2023-02-27T01:27:46.139Z,24.22
2023-02-27T01:28:46.071Z,24.22
2023-02-27T01:29:46.013Z,24.23
2023-02-27T03:14:41.143Z,24.01
2023-02-27T03:15:41.256Z,24.01
2023-02-27T03:16:41.087Z,24.04
2023-02-27T03:17:41.024Z,23.99
2023-02-27T03:18:41.009Z,23.98
2023-02-27T03:19:40.932Z,23.98
2023-02-27T03:20:40.878Z,23.98
2023-02-27T03:21:40.838Z,23.96
2023-02-27T03:22:40.801Z,23.96
2023-02-27T03:23:40.800Z,23.94
2023-02-27T03:24:40.701Z,23.94
2023-02-27T03:25:40.657Z,23.92
2023-02-27T03:26:40.617Z,23.94
2023-02-27T03:27:40.557Z,23.94
2023-02-27T03:28:40.505Z,23.95
2023-02-27T03:29:40.473Z,23.93
2023-02-27T03:30:40.545Z,23.97
2023-02-27T03:31:40.401Z,23.93
2023-02-27T03:32:40.329Z,23.93
2023-02-27T03:33:40.294Z,23.90
2023-02-27T03:34:40.249Z,23.91
2023-02-27T03:35:40.197Z,23.93
2023-02-27T03:36:40.154Z,23.95
2023-02-27T03:37:40.108Z,23.94
2023-02-27T03:38:40.064Z,23.91
2023-02-27T03:39:40.004Z,23.91
2023-02-27T03:40:39.943Z,23.92
2023-02-27T03:41:39.898Z,23.89
2023-02-27T03:42:39.864Z,23.91
2023-02-27T03:43:39.792Z,23.89
2023-02-27T03:44:39.765Z,23.92
2023-02-27T03:45:39.781Z,23.90
2023-02-27T03:46:39.733Z,23.89
2023-02-27T03:47:39.606Z,23.87
2023-02-27T03:48:39.564Z,23.87
2023-02-27T03:49:39.513Z,23.91
2023-02-27T03:50:39.548Z,23.89
2023-02-27T03:51:40.414Z,23.90
2023-02-27T03:52:39.382Z,23.91
2023-02-27T03:53:39.314Z,23.91
2023-02-27T03:54:39.263Z,23.93
2023-02-27T03:55:39.225Z,23.93
2023-02-27T03:56:39.160Z,23.93
2023-02-27T03:57:39.116Z,23.91
2023-02-27T03:58:39.065Z,23.96
2023-02-27T03:59:39.009Z,23.96
2023-02-27T04:00:38.976Z,23.95
2023-02-27T04:25:57.641Z,24.16
2023-02-27T04:26:57.640Z,24.19
2023-02-27T04:27:57.723Z,24.14
2023-02-27T04:28:57.674Z,24.21
2023-02-27T04:29:57.682Z,24.24
2023-02-27T04:30:57.735Z,24.19
2023-02-27T04:31:58.436Z,24.18
2023-02-27T04:32:57.703Z,24.19
2023-02-27T04:33:57.721Z,24.22
2023-02-27T04:34:57.732Z,24.22
2023-02-27T04:35:57.738Z,24.29
2023-02-27T04:36:57.744Z,24.24
2023-02-27T04:37:57.765Z,24.28
2023-02-27T04:38:57.766Z,24.26
2023-02-27T04:39:57.844Z,24.30
2023-02-27T04:40:57.794Z,24.24
2023-02-27T04:41:57.811Z,24.23
2023-02-27T04:42:57.817Z,24.25
2023-02-27T04:43:57.823Z,24.24
2023-02-27T04:44:57.829Z,24.23
2023-02-27T04:45:57.923Z,24.22
2023-02-27T04:46:57.857Z,24.24
2023-02-27T04:47:57.865Z,24.20
2023-02-27T04:48:57.927Z,24.20
2023-02-27T04:49:57.882Z,24.19
2023-02-27T04:50:57.942Z,24.17
2023-02-27T04:51:57.901Z,24.14
2023-02-27T04:52:57.939Z,24.17
2023-02-27T04:53:57.999Z,24.12
2023-02-27T04:54:58.089Z,24.15
2023-02-27T04:55:58.156Z,24.13
2023-02-27T04:56:58.227Z,24.12
2023-02-27T04:57:58.297Z,24.12
2023-02-27T04:58:58.371Z,24.14
2023-02-27T04:59:58.449Z,24.11
2023-02-27T05:00:58.517Z,24.15
2023-02-27T05:01:58.656Z,24.11
2023-02-27T05:02:58.721Z,24.13
2023-02-27T05:04:00.471Z,24.12
2023-02-27T05:04:58.795Z,24.10
2023-02-27T05:05:58.878Z,24.12
2023-02-27T05:06:58.943Z,24.12
2023-02-27T05:08:59.087Z,24.13
2023-02-27T07:09:06.721Z,30.77
2023-02-27T07:10:06.006Z,30.91
2023-02-27T07:11:06.076Z,30.98
2023-02-27T07:13:06.210Z,31.35
2023-02-27T07:14:06.357Z,31.40
2023-02-27T07:15:06.362Z,31.53
2023-02-27T07:16:06.425Z,31.63
2023-02-27T07:17:06.541Z,31.78
2023-02-27T07:18:06.601Z,32.01
2023-02-27T07:19:08.635Z,32.03
2023-02-27T07:20:06.641Z,32.20
2023-02-27T07:21:06.695Z,32.27
2023-02-27T07:22:06.754Z,32.18
2023-02-27T07:23:06.823Z,32.18
2023-02-27T07:24:06.902Z,32.12
2023-02-27T07:25:06.946Z,32.10
2023-02-27T07:26:07.020Z,32.07
2023-02-27T07:27:07.024Z,32.01
2023-02-27T07:28:07.124Z,32.00
2023-02-27T07:29:07.082Z,31.97
2023-02-27T07:30:07.090Z,31.97
2023-02-27T07:31:07.149Z,32.03
2023-02-27T07:32:07.242Z,31.98
2023-02-27T07:33:07.122Z,31.99
2023-02-27T07:34:07.179Z,31.96
2023-02-27T07:35:07.177Z,32.00
2023-02-27T07:36:07.200Z,31.95
2023-02-27T07:37:07.253Z,32.00
2023-02-27T07:38:07.261Z,31.99
2023-02-27T07:39:07.378Z,31.95
2023-02-27T07:40:07.331Z,31.96
2023-02-27T07:41:07.366Z,31.95
2023-02-27T07:42:07.402Z,31.92
2023-02-27T07:43:07.472Z,31.90
2023-02-27T07:44:07.495Z,31.91
2023-02-27T07:45:07.555Z,31.94
2023-02-27T07:46:07.623Z,31.91
2023-02-27T07:47:07.656Z,31.81
2023-02-27T07:48:07.682Z,31.82
2023-02-27T07:49:07.794Z,31.84
2023-02-27T07:50:07.796Z,31.82
2023-02-27T07:51:07.837Z,31.82
2023-02-27T07:52:07.918Z,31.71
2023-02-27T07:53:08.048Z,31.72
2023-02-27T07:54:08.322Z,31.75
2023-02-27T07:55:08.056Z,31.75
2023-02-27T07:56:08.117Z,31.73
2023-02-27T07:57:08.162Z,31.68
2023-02-27T07:58:08.222Z,31.71
2023-02-27T07:59:08.335Z,31.68
2023-02-27T08:00:08.347Z,31.68
2023-02-27T08:01:09.375Z,31.69
2023-02-27T08:02:08.459Z,31.65
2023-02-27T08:03:08.492Z,31.66
2023-02-27T08:04:08.557Z,31.64
2023-02-27T08:05:08.601Z,31.61
2023-02-27T08:06:09.605Z,31.66
2023-02-27T08:07:08.608Z,31.62
2023-02-27T08:08:08.612Z,31.58
2023-02-27T08:09:08.625Z,31.51
2023-02-27T08:10:08.649Z,31.51
2023-02-27T08:11:08.651Z,31.49
2023-02-27T08:12:08.662Z,31.46
2023-02-27T08:13:08.643Z,31.44
2023-02-27T08:14:08.665Z,31.42
2023-02-27T08:15:08.662Z,31.36
2023-02-27T08:16:08.718Z,31.33
2023-02-27T08:17:08.685Z,31.34
2023-02-27T08:18:08.791Z,31.29
2023-02-27T08:19:08.805Z,31.28
2023-02-27T08:20:08.840Z,31.28
2023-02-27T08:21:08.940Z,31.25
2023-02-27T08:22:08.927Z,31.21
2023-02-27T08:23:08.978Z,31.17
2023-02-27T08:24:09.045Z,31.18
2023-02-27T08:25:09.087Z,31.11
2023-02-27T08:26:09.134Z,31.12
2023-02-27T08:27:09.176Z,31.08
2023-02-27T08:28:09.221Z,31.03
2023-02-27T08:29:09.263Z,30.99
2023-02-27T08:30:09.307Z,30.97
2023-02-27T08:31:09.397Z,30.92
2023-02-27T08:32:09.392Z,30.91
2023-02-27T08:33:10.308Z,30.89
2023-02-27T08:34:10.820Z,30.86
2023-02-27T08:35:09.507Z,30.84
2023-02-27T08:36:09.563Z,30.81
2023-02-27T08:37:09.633Z,30.74
2023-02-27T08:38:09.617Z,30.71
2023-02-27T08:39:09.648Z,30.71
2023-02-27T08:40:09.706Z,30.70
2023-02-27T08:41:09.735Z,30.69
2023-02-27T08:42:09.780Z,30.66
2023-02-27T08:43:09.878Z,30.63
2023-02-27T08:44:09.848Z,30.59
2023-02-27T08:45:09.870Z,30.58
2023-02-27T08:46:09.980Z,30.58
2023-02-27T08:47:09.934Z,30.55
2023-02-27T08:48:09.974Z,30.50
2023-02-27T08:49:10.003Z,30.49
2023-02-27T08:50:10.037Z,30.46
2023-02-27T08:51:10.071Z,30.44
2023-02-27T08:52:10.118Z,30.42
2023-02-27T08:53:10.148Z,30.37
2023-02-27T08:54:10.259Z,30.35
2023-02-27T08:55:10.270Z,30.36
2023-02-27T08:56:10.313Z,30.34
2023-02-27T08:57:10.381Z,30.32
2023-02-27T08:58:10.340Z,30.28
2023-02-27T08:59:10.348Z,30.24
2023-02-27T09:00:10.537Z,30.23
2023-02-27T09:01:10.426Z,30.18
2023-02-27T09:02:11.556Z,30.19
2023-02-27T09:03:10.472Z,30.13
2023-02-27T09:04:10.502Z,30.12
2023-02-27T09:05:10.539Z,30.12
2023-02-27T09:06:10.825Z,30.08
2023-02-27T09:07:10.594Z,30.05
2023-02-27T09:08:11.318Z,30.03
2023-02-27T09:09:10.645Z,30.01
2023-02-27T09:10:10.681Z,30.01
2023-02-27T09:11:10.728Z,29.96
2023-02-27T09:12:10.718Z,29.93
2023-02-27T09:13:10.749Z,29.93
2023-02-27T09:14:10.767Z,29.95
2023-02-27T09:15:10.806Z,30.01
2023-02-27T09:16:10.886Z,30.17
2023-02-27T09:17:10.869Z,30.15
2023-02-27T09:18:10.896Z,29.84
2023-02-27T09:19:11.021Z,26.26
2023-02-27T09:20:11.057Z,24.06
2023-02-27T09:21:11.101Z,23.39
2023-02-27T09:22:11.128Z,22.61
2023-02-27T09:23:11.221Z,24.17
2023-02-27T09:24:19.663Z,24.32
2023-02-27T09:25:12.334Z,24.69
2023-02-27T09:26:11.377Z,24.93
2023-02-27T09:27:11.372Z,24.98
2023-02-27T09:28:11.395Z,25.01
2023-02-27T09:29:11.418Z,25.12
2023-02-27T09:31:11.465Z,25.28
2023-02-27T09:32:12.416Z,25.37
2023-02-27T09:33:11.496Z,25.45
2023-02-27T09:34:11.508Z,25.54
2023-02-27T09:35:11.520Z,25.59
2023-02-27T09:36:11.536Z,25.56
2023-02-27T09:37:11.568Z,25.55
2023-02-27T09:38:11.578Z,25.51
2023-02-27T09:39:11.635Z,25.52
2023-02-27T09:40:11.712Z,25.50
2023-02-27T13:08:15.951Z,25.85
2023-02-27T13:09:15.983Z,25.83
2023-02-27T13:10:16.960Z,25.80
2023-02-27T13:11:16.043Z,25.77
2023-02-27T13:12:16.066Z,25.77
2023-02-27T13:13:16.090Z,25.73
2023-02-27T13:14:16.119Z,25.73
2023-02-27T13:15:16.160Z,25.72
2023-02-27T13:16:16.352Z,25.72
2023-02-27T13:17:16.216Z,25.71
2023-02-27T13:18:16.232Z,25.71
2023-02-27T13:19:16.306Z,25.71
2023-02-27T13:20:16.276Z,25.69
2023-02-27T13:21:16.357Z,25.69
2023-02-27T13:22:16.345Z,25.69
2023-02-27T13:23:16.365Z,25.68
2023-02-27T13:24:16.396Z,25.66
2023-02-27T13:25:16.417Z,25.66
2023-02-27T13:26:16.453Z,25.66
2023-02-27T13:27:16.495Z,25.65
2023-02-27T13:28:16.494Z,25.65
2023-02-27T13:29:16.525Z,25.65
2023-02-27T13:30:16.549Z,25.63
2023-02-27T13:31:16.578Z,25.61
2023-02-27T13:32:16.688Z,25.61
2023-02-27T13:33:16.731Z,25.61
2023-02-27T13:34:16.647Z,25.59
2023-02-27T13:35:16.674Z,25.61
2023-02-27T13:36:17.625Z,25.59
2023-02-27T13:37:16.800Z,25.57
2023-02-27T13:38:16.749Z,25.58
2023-02-27T13:39:16.771Z,25.56
2023-02-27T13:40:16.789Z,25.56
2023-02-27T13:41:16.811Z,25.54
2023-02-27T13:42:16.835Z,25.53
2023-02-27T13:43:16.943Z,25.54
2023-02-27T13:44:16.868Z,25.53
2023-02-27T13:45:16.893Z,25.53
2023-02-27T13:50:17.016Z,25.51
2023-02-27T14:13:17.644Z,25.51
2023-02-27T14:14:17.766Z,25.51
2023-02-27T14:15:17.713Z,25.52
2023-02-27T14:16:17.794Z,25.52
2023-02-27T14:17:17.769Z,25.53
2023-02-27T14:18:32.312Z,25.50
2023-02-27T14:19:18.797Z,25.54
2023-02-27T14:20:17.811Z,25.52
2023-02-27T14:21:17.806Z,25.52
2023-02-27T14:22:17.797Z,25.53
2023-02-27T14:23:17.800Z,25.51
2023-02-27T14:24:17.812Z,25.55
2023-02-27T14:25:17.803Z,25.53
2023-02-27T14:26:17.806Z,25.54
2023-02-27T14:27:17.821Z,25.55
2023-02-27T14:28:18.407Z,25.54
2023-02-27T14:29:17.927Z,25.54
2023-02-27T14:30:17.841Z,25.56
2023-02-27T14:31:17.922Z,25.55
2023-02-27T14:32:17.860Z,25.58
2023-02-27T14:33:21.656Z,25.58
2023-02-27T14:34:18.849Z,25.56
2023-02-27T14:35:17.868Z,25.56
2023-02-27T14:36:17.867Z,25.57
2023-02-27T14:37:17.892Z,25.55
2023-02-27T14:38:17.885Z,25.55
2023-02-27T14:39:17.888Z,25.57
2023-02-27T14:40:28.066Z,25.59
2023-02-27T14:41:18.884Z,25.59
2023-02-27T14:42:18.002Z,25.59
2023-02-27T14:43:17.882Z,25.58
2023-02-27T14:44:17.887Z,25.57
2023-02-27T14:45:20.200Z,25.61
2023-02-27T14:46:17.949Z,25.63
2023-02-27T14:47:17.919Z,25.63
2023-02-27T14:48:17.925Z,25.62
2023-02-27T14:49:17.936Z,25.63
2023-02-27T14:50:17.950Z,25.68
2023-02-27T14:51:17.957Z,25.68
2023-02-27T14:52:17.963Z,25.69
2023-02-27T14:53:17.982Z,25.67
2023-02-27T14:54:17.992Z,25.68
2023-02-27T14:55:17.998Z,25.65
2023-02-27T14:56:18.005Z,25.65
2023-02-27T14:57:18.025Z,25.64
2023-02-27T14:58:18.014Z,25.64
2023-02-27T15:14:18.064Z,25.67
2023-02-27T15:15:18.113Z,25.64
2023-02-27T15:16:18.125Z,25.64
2023-02-27T15:17:18.079Z,25.65
2023-02-27T15:18:18.082Z,25.66
2023-02-27T15:19:18.094Z,25.67
2023-02-27T15:20:18.108Z,25.67
2023-02-27T15:21:18.113Z,25.66
2023-02-27T15:22:21.455Z,25.67
2023-02-27T15:23:19.129Z,25.68
2023-02-27T15:24:18.121Z,25.67
2023-02-27T15:25:18.131Z,25.68
2023-02-27T15:26:18.152Z,25.69
2023-02-27T15:27:18.141Z,25.74
2023-02-27T15:28:18.154Z,25.74
2023-02-27T15:29:18.939Z,25.79
2023-02-27T15:30:18.173Z,25.79
2023-02-27T15:31:18.235Z,25.76
2023-02-27T15:32:18.342Z,25.77
2023-02-27T15:33:18.336Z,25.75
2023-02-27T15:34:18.446Z,25.77
2023-02-27T15:35:18.496Z,25.81
2023-02-27T15:36:18.575Z,25.79
2023-02-27T15:37:18.665Z,25.80
2023-02-27T15:38:19.499Z,25.81
2023-02-27T15:39:18.832Z,25.81
2023-02-27T15:40:18.906Z,25.81
2023-02-27T15:41:18.962Z,25.82
2023-02-27T15:42:19.012Z,25.84
2023-02-27T15:43:19.082Z,25.84
2023-02-27T15:44:19.146Z,25.86
2023-02-27T15:45:19.202Z,25.85
2023-02-27T15:46:19.287Z,25.87
2023-02-27T15:47:19.308Z,25.87
2023-02-27T15:48:19.335Z,25.85
2023-02-27T15:49:19.442Z,25.87
2023-02-27T15:50:19.468Z,25.87
2023-02-27T15:51:19.530Z,25.86
2023-02-27T15:52:19.542Z,25.89
2023-02-27T15:53:19.546Z,25.87
2023-02-27T15:54:19.571Z,25.89
2023-02-27T15:55:19.673Z,25.89
2023-02-27T15:56:19.723Z,25.92
2023-02-27T15:57:19.790Z,25.92
2023-02-27T15:58:19.887Z,25.92
2023-02-27T15:59:19.764Z,25.93
2023-02-27T16:00:19.782Z,25.94
2023-02-27T16:01:19.927Z,25.93
2023-02-27T16:02:20.009Z,25.89
2023-02-27T16:03:19.921Z,25.89
2023-02-27T16:04:21.004Z,25.89
2023-02-27T16:05:19.964Z,25.90
2023-02-27T16:06:20.083Z,25.90
2023-02-27T16:07:20.069Z,25.88
2023-02-27T16:08:20.142Z,25.89
2023-02-27T16:09:20.229Z,25.87
2023-02-27T16:10:20.307Z,25.86
2023-02-27T17:21:25.956Z,25.79
2023-02-27T17:22:26.028Z,25.78
2023-02-27T17:23:26.119Z,25.77
2023-02-27T17:24:26.200Z,25.75
2023-02-27T17:25:26.290Z,25.74
2023-02-27T17:26:26.612Z,25.77
2023-02-27T17:27:26.428Z,25.74
2023-02-27T17:28:26.511Z,25.76
2023-02-27T17:29:26.592Z,25.75
2023-02-27T17:30:26.819Z,25.74
2023-02-27T17:31:26.775Z,25.75
2023-02-27T17:32:26.874Z,25.76
2023-02-27T17:33:26.944Z,25.73
2023-02-27T17:34:27.041Z,25.75
2023-02-27T17:35:27.521Z,25.74
2023-02-27T17:36:27.498Z,25.73
2023-02-27T17:37:27.272Z,25.74
2023-02-27T17:38:27.318Z,25.73
2023-02-27T17:39:27.382Z,25.74
2023-02-27T17:40:27.443Z,25.74
2023-02-27T17:41:27.505Z,25.76
2023-02-27T17:42:27.554Z,25.75
2023-02-27T17:43:27.647Z,25.74
2023-02-27T17:44:27.743Z,25.75
2023-02-27T17:45:27.805Z,25.75
2023-02-27T17:46:28.388Z,25.77
2023-02-27T17:47:27.995Z,25.73
2023-02-27T17:48:28.106Z,25.75
2023-02-27T17:49:28.147Z,25.74
2023-02-27T17:50:28.217Z,25.74
2023-02-27T17:51:28.308Z,25.73
2023-02-27T17:52:28.410Z,25.74
2023-02-27T17:53:28.416Z,25.74
2023-02-27T17:54:28.487Z,25.73
2023-02-27T17:55:28.567Z,25.74
2023-02-27T17:56:28.950Z,25.72
2023-02-27T17:57:28.711Z,25.73
2023-02-27T17:58:28.759Z,25.72
2023-02-27T17:59:28.844Z,25.74
2023-02-27T18:00:29.461Z,25.72
2023-02-27T18:01:29.053Z,25.72
2023-02-27T18:02:29.167Z,25.72
2023-02-27T18:03:29.094Z,25.70
2023-02-27T18:04:29.163Z,25.74
2023-02-27T18:05:29.254Z,25.72
2023-02-27T18:06:29.662Z,25.72
2023-02-27T18:07:29.414Z,25.69
2023-02-27T18:08:30.465Z,25.70
2023-02-27T18:09:29.560Z,25.71
2023-02-27T18:10:29.645Z,25.71
2023-02-27T18:11:29.725Z,25.69
2023-02-27T18:12:29.780Z,25.68
2023-02-27T18:13:29.847Z,25.70
2023-02-27T18:14:29.900Z,25.70
2023-02-27T18:15:30.083Z,25.70
2023-02-27T18:16:30.370Z,25.71
2023-02-27T18:17:30.097Z,25.69
2023-02-27T18:18:30.184Z,25.70
2023-02-27T18:19:32.367Z,25.72
2023-02-27T18:20:30.232Z,25.69
2023-02-27T18:21:30.359Z,25.70
2023-02-27T18:22:30.383Z,25.71
2023-02-27T18:23:30.478Z,25.68
2023-02-27T18:24:30.535Z,25.68
2023-02-27T18:25:30.679Z,25.69
2023-02-27T18:26:31.338Z,25.68
2023-02-27T18:27:30.809Z,25.68
2023-02-27T18:28:30.809Z,25.68
2023-02-27T18:29:30.852Z,25.69
2023-02-27T18:30:30.985Z,25.68
2023-02-27T18:31:31.479Z,25.69
2023-02-27T18:32:30.998Z,25.68
2023-02-27T18:33:31.075Z,25.66
2023-02-27T18:34:31.138Z,25.64
2023-02-27T18:35:31.210Z,25.65
2023-02-27T18:36:31.689Z,25.66
2023-02-27T18:37:31.336Z,25.67
2023-02-27T18:38:31.389Z,25.65
2023-02-27T18:39:31.428Z,25.66
2023-02-27T18:40:31.484Z,25.70
2023-02-27T18:41:31.629Z,25.65
2023-02-27T18:42:31.598Z,25.66
2023-02-27T18:43:31.714Z,25.62
2023-02-27T18:44:31.786Z,25.61
2023-02-27T18:45:31.810Z,25.61
2023-02-27T18:46:32.292Z,25.64
2023-02-27T18:47:31.920Z,25.60
2023-02-27T18:48:31.945Z,25.60
2023-02-27T18:49:31.978Z,25.59
2023-02-27T18:50:32.070Z,25.60
2023-02-27T18:51:32.109Z,25.62
2023-02-27T18:52:32.221Z,25.58
2023-02-27T18:53:32.212Z,25.58
2023-02-27T18:54:32.263Z,25.62
2023-02-27T18:55:32.318Z,25.59
2023-02-27T18:56:32.430Z,25.58
2023-02-27T18:57:32.467Z,25.58
2023-02-27T18:58:32.514Z,25.60
2023-02-27T18:59:32.669Z,25.60
2023-02-27T19:00:32.676Z,25.56
2023-02-27T19:01:32.708Z,25.58
2023-02-27T19:02:32.792Z,25.61
2023-02-27T19:03:32.962Z,25.59
2023-02-27T19:04:32.875Z,25.59
2023-02-27T19:05:32.925Z,25.60
2023-02-27T19:06:32.999Z,25.59
2023-02-27T19:07:33.086Z,25.61
2023-02-27T19:08:33.171Z,25.61
2023-02-27T19:09:33.254Z,25.58
2023-02-27T19:10:33.336Z,25.60
2023-02-27T19:11:33.729Z,25.55
2023-02-27T19:12:33.471Z,25.58
2023-02-27T19:13:33.545Z,25.60
2023-02-27T19:14:33.606Z,25.59
2023-02-27T19:15:33.644Z,25.57
2023-02-27T19:16:33.753Z,25.58
2023-02-27T19:17:33.747Z,25.55
2023-02-27T19:18:33.808Z,25.57
2023-02-27T19:19:33.879Z,25.59
2023-02-27T19:20:33.963Z,25.55
2023-02-27T19:21:34.042Z,25.54
2023-02-27T19:22:34.141Z,25.55
2023-02-27T19:23:34.210Z,25.56
2023-02-27T19:24:34.325Z,25.58
2023-02-27T19:25:34.354Z,25.55
2023-02-27T19:26:34.427Z,25.55
2023-02-27T19:27:34.489Z,25.54
2023-02-27T19:28:34.592Z,25.55
2023-02-27T19:29:34.718Z,25.53
2023-02-27T19:30:34.755Z,25.55
2023-02-27T19:31:34.837Z,25.53
2023-02-27T19:32:34.818Z,25.56
2023-02-27T19:33:34.880Z,25.55
2023-02-27T19:34:34.968Z,25.58
2023-02-27T19:48:35.941Z,25.51
2023-02-27T19:49:35.982Z,25.52
2023-02-27T19:50:36.041Z,25.52
2023-02-27T19:51:36.072Z,25.53
2023-02-27T19:52:36.117Z,25.53
2023-02-27T19:53:36.188Z,25.53
2023-02-27T19:54:36.287Z,25.52
2023-02-27T19:55:36.397Z,25.53
2023-02-27T19:56:36.478Z,25.53
2023-02-27T19:57:36.431Z,25.53
2023-02-27T19:58:36.504Z,25.51
2023-02-27T19:59:36.502Z,25.50
2023-02-27T20:00:36.531Z,25.53
2023-02-27T20:01:37.082Z,25.50
2023-02-27T20:02:36.609Z,25.52
2023-02-27T20:03:36.688Z,25.51
2023-02-27T20:04:36.679Z,25.53
2023-02-27T20:05:36.738Z,25.51
2023-02-27T20:06:36.791Z,25.51
2023-02-27T20:07:36.810Z,25.50
2023-02-27T20:08:36.886Z,25.51
2023-02-27T20:09:37.034Z,25.52
2023-02-27T20:10:37.062Z,25.52
2023-02-27T20:11:37.122Z,25.51
2023-02-27T20:12:37.208Z,25.51
2023-02-27T20:13:37.292Z,25.51
2023-02-27T20:14:37.381Z,25.54
2023-02-27T20:15:37.474Z,25.51
2023-02-27T20:16:37.636Z,25.49
2023-02-27T20:17:37.604Z,25.50
2023-02-27T20:18:37.671Z,25.49
2023-02-27T20:19:37.737Z,25.47
2023-02-27T20:20:37.804Z,25.50
2023-02-27T20:21:37.899Z,25.50
2023-02-27T20:22:37.939Z,25.48
2023-02-27T20:23:38.002Z,25.49
2023-02-27T20:24:38.085Z,25.52
2023-02-27T20:25:38.111Z,25.51
2023-02-27T20:26:38.184Z,25.51
2023-02-27T20:27:38.224Z,25.50
2023-02-27T20:28:38.322Z,25.49
2023-02-27T20:29:38.410Z,25.51
2023-02-27T20:30:38.500Z,25.48
2023-02-27T20:31:38.638Z,25.51
2023-02-27T20:32:38.698Z,25.49
2023-02-27T20:33:38.761Z,25.50
2023-02-27T20:34:38.828Z,25.47
2023-02-27T20:35:38.898Z,25.48
2023-02-27T20:36:38.950Z,25.48
2023-02-27T20:37:39.027Z,25.48
2023-02-27T20:38:40.004Z,25.49
2023-02-27T20:39:39.166Z,25.49
2023-02-27T20:40:39.254Z,25.48
2023-02-27T20:41:39.328Z,25.49
2023-02-27T20:42:39.380Z,25.50
2023-02-27T20:43:39.492Z,25.49
2023-02-27T20:44:39.534Z,25.49
2023-02-27T20:45:39.648Z,25.49
2023-02-27T20:46:39.669Z,25.47
2023-02-27T20:47:39.809Z,25.46
2023-02-27T20:48:39.798Z,25.46
2023-02-27T20:49:39.829Z,25.47
2023-02-27T20:50:39.900Z,25.49
2023-02-27T20:51:39.989Z,25.47
2023-02-27T20:52:40.055Z,25.48
2023-02-27T20:53:40.092Z,25.47
2023-02-27T20:54:40.158Z,25.46
2023-02-27T20:55:40.223Z,25.46
2023-02-27T20:56:40.283Z,25.48
2023-02-27T20:57:40.536Z,25.48
2023-02-27T20:58:40.391Z,25.49
2023-02-27T20:59:40.475Z,25.49
2023-02-27T21:00:40.532Z,25.47
2023-02-27T21:01:40.661Z,25.46
2023-02-27T21:02:40.637Z,25.48
2023-02-27T21:03:40.802Z,25.46
2023-02-27T21:04:40.935Z,25.48
2023-02-27T21:05:40.914Z,25.49
2023-02-27T21:06:41.017Z,25.44
2023-02-27T21:07:42.044Z,25.47
2023-02-27T21:08:41.178Z,25.47
2023-02-27T21:09:41.191Z,25.45
2023-02-27T21:10:41.268Z,25.46
2023-02-27T21:11:41.307Z,25.45
2023-02-27T21:12:41.348Z,25.47
2023-02-27T21:13:41.375Z,25.46
2023-02-27T21:14:43.928Z,25.50
2023-02-27T21:15:41.428Z,25.47
2023-02-27T21:16:41.536Z,25.49
2023-02-27T21:17:41.425Z,25.47
2023-02-27T21:18:41.527Z,25.46
2023-02-27T21:19:41.435Z,25.49
2023-02-27T21:20:41.448Z,25.48
2023-02-27T21:21:41.465Z,25.47
2023-02-27T21:22:41.465Z,25.45
2023-02-27T21:23:41.639Z,25.48
2023-02-27T21:24:41.479Z,25.50
2023-02-27T21:25:41.495Z,25.45
2023-02-27T21:26:41.583Z,25.48
2023-02-27T21:27:41.525Z,25.48
2023-02-27T21:28:41.546Z,25.48
2023-02-27T21:29:41.567Z,25.48
2023-02-27T21:30:41.574Z,25.48
2023-02-27T21:31:41.598Z,25.45
2023-02-27T21:32:41.725Z,25.45
2023-02-27T21:33:41.633Z,25.44
2023-02-27T21:34:41.697Z,25.46
2023-02-27T21:35:41.716Z,25.44
2023-02-27T21:36:41.677Z,25.46
2023-02-27T21:37:41.696Z,25.44
2023-02-27T21:38:41.709Z,25.48
2023-02-27T21:39:41.732Z,25.46
2023-02-27T21:40:41.749Z,25.45
2023-02-27T21:41:41.772Z,25.46
2023-02-27T21:42:41.774Z,25.45
2023-02-27T21:43:41.793Z,25.44
2023-02-27T21:44:41.813Z,25.46
2023-02-27T21:45:41.829Z,25.45
2023-02-27T21:46:41.846Z,25.45
2023-02-27T21:47:41.874Z,25.46
2023-02-27T21:48:41.881Z,25.42
2023-02-27T21:49:41.892Z,25.45
2023-02-27T21:50:41.919Z,25.47
2023-02-27T21:51:42.433Z,25.44
2023-02-27T21:52:42.006Z,25.42
2023-02-27T21:53:41.971Z,25.43
2023-02-27T21:54:41.992Z,25.50
2023-02-27T21:55:42.019Z,25.45
2023-02-27T21:56:42.029Z,25.45
2023-02-27T21:57:42.047Z,25.44
2023-02-27T21:58:42.076Z,25.42
2023-02-27T21:59:42.076Z,25.48
2023-02-27T22:00:42.116Z,25.44
2023-02-27T22:01:42.208Z,25.45
2023-02-27T22:02:42.283Z,25.45
2023-02-27T22:03:42.266Z,25.46
2023-02-27T22:04:42.383Z,25.44
2023-02-27T22:05:42.505Z,25.43
2023-02-27T22:06:42.565Z,25.45
2023-02-27T22:07:42.673Z,25.46
2023-02-27T22:08:42.844Z,25.43
2023-02-27T22:09:42.813Z,25.47
2023-02-27T22:10:42.913Z,25.46
2023-02-27T22:11:42.946Z,25.45
2023-02-27T22:12:42.999Z,25.45
2023-02-27T22:13:43.068Z,25.45
2023-02-27T22:14:43.185Z,25.47
2023-02-27T22:15:43.264Z,25.45
2023-02-27T22:16:43.420Z,25.44
2023-02-27T22:17:43.378Z,25.47
2023-02-27T22:18:43.468Z,25.44
2023-02-27T22:19:43.515Z,25.46
2023-02-27T22:20:43.616Z,25.46
2023-02-27T22:21:43.633Z,25.47
2023-02-27T22:22:43.801Z,25.47
2023-02-27T22:23:43.830Z,25.44
2023-02-27T22:24:43.854Z,25.47
2023-02-27T22:25:43.955Z,25.45
2023-02-27T22:26:43.948Z,25.48
2023-02-27T22:27:44.009Z,25.45
2023-02-27T22:28:44.042Z,25.45
2023-02-27T22:29:45.031Z,25.47
2023-02-27T22:30:44.190Z,25.47
2023-02-27T22:31:44.326Z,25.44
2023-02-27T22:32:44.336Z,25.47
2023-02-27T22:33:44.445Z,25.48
2023-02-27T22:34:44.418Z,25.49
2023-02-27T22:35:45.042Z,25.45
2023-02-27T22:36:44.512Z,25.47
2023-02-27T22:37:44.572Z,25.45
2023-02-27T22:38:44.655Z,25.46
2023-02-27T22:39:44.710Z,25.45
2023-02-27T22:40:44.765Z,25.46
2023-02-27T22:41:44.808Z,25.46
2023-02-27T22:42:44.854Z,25.46
2023-02-27T22:43:44.924Z,25.45
2023-02-27T22:44:45.039Z,25.46
2023-02-27T22:59:45.953Z,25.47
2023-02-27T23:00:45.993Z,25.47
2023-02-27T23:01:46.084Z,25.48
2023-02-27T23:02:46.216Z,25.49
2023-02-27T23:03:46.304Z,25.46
2023-02-27T23:04:46.367Z,25.46
2023-02-27T23:05:46.475Z,25.50
2023-02-27T23:06:46.574Z,25.52
